Englewood, CO (80110)

10:50 PM MDT on October 21, 2014 (GMT -0600)
South Broadway Heights | Change Station
CLOSE
Current Station
Personal Weather Station
Location: Englewood, CO
Elevation: 5387 ft
Nearby Weather Stations

Elev 5387 ft 39.65 °N, 104.98 °W | Updated 0 second ago

Overcast
Overcast
55.0 °F
Feels Like 55.0 °F
N
0.0
Wind Variable Wind from ESE
Gusts 0.0 mph

Today
High -- | Low -- °F
--% Chance of Precip.
Yesterday
High -- | Low -- °F
Precip. -- in
7:16 AM 6:12 PM
Waning Crescent, 3% visible
Pressure 29.84 in
Visibility 10.0 miles
Clouds Mostly Cloudy 10000 ft
Mostly Cloudy 20000 ft
Dew Point 41 °F
Humidity 60%
Rainfall 0.00 in
Snow Depth Not available.
UV 0 out of 12
Pollen 3.00 out of 12
PM2.5 Good
Flu Activity Sporadic
METAR KAPA 220353Z 34006KT 10SM BKN100 BKN200 14/04 A2999 RMK AO2 SLP105 T01390044

More Conditions Fewer Conditions

Pressure 29.84 in
Visibility 10.0 miles
Clouds Mostly Cloudy 10000 ft
Mostly Cloudy 20000 ft
Dew Point 41 °F
Humidity 60%
Rainfall 0.00 in
Snow Depth Not available.
UV 0 out of 12
Pollen 3.00 out of 12
PM2.5 Good
Flu Activity Sporadic
METAR KAPA 220353Z 34006KT 10SM BKN100 BKN200 14/04 A2999 RMK AO2 SLP105 T01390044

More Conditions Fewer Conditions

10-Day Weather Forecast

Almanac

Astronomy

Oct. 21, 2014 Rise Set
Actual Time 7:16 AM MDT 6:12 PM MDT
Civil Twilight 6:49 AM MDT 6:39 PM MDT
Nautical Twilight 6:17 AM MDT 7:10 PM MDT
Astronomical Twilight 5:46 AM MDT 7:41 PM MDT
Moon 5:03 AM MDT (10/21) 5:07 PM MDT (10/21)
Length of Visible Light 11h 50m
Length of Day
10h 55m
Tomorrow will be 2m 28s shorter.
Waning Crescent, 3% of the Moon is Illuminated
Oct 22
Waning Crescent
Oct 23
New
Oct 30
First Quarter
Nov 6
Full
Nov 14
Last Quarter

Yesterday's Extremes

State Highs State Lows

Community

WunderPhotos

Upload Photos

1,763,882 photos uploaded!

Nearby

Air Quality

  Air Quality AQ Index Pollutant
Yesterday Good
OZONE
Yesterday Good
PM10
Current Good
PM2.5
Tuesday Good
OZONE
Tuesday Good
PM2.5
Wednesday Good
OZONE
Wednesday Good
PM2.5

Snow Depth

Station Depth Elevation
Echo Lake 0 in 10600 ft
Lake Eldora 0 in 9700 ft
Niwot 0 in 9910 ft
University Camp 0 in 10300 ft
Jackwhacker Gulch 0 in 10960 ft

Earthquake Activity

City Distance Mag. Time & Date
No recent earthquake activity has been reported nearby.
Minimum magnitude displayed is 2.5.

Coastal Water Temperatures

Place Temperature
No Stations Reporting

Nearby Weather Stations